createdAt,value
2023-01-04T00:00:01.086Z,6.00
2023-01-04T00:01:05.882Z,4.78
2023-01-04T00:02:08.789Z,5.80
2023-01-04T00:03:12.171Z,5.25
2023-01-04T00:04:14.936Z,6.53
2023-01-04T00:05:17.695Z,5.00
2023-01-04T00:06:21.061Z,5.70
2023-01-04T00:07:23.814Z,5.68
2023-01-04T00:08:26.656Z,5.47
2023-01-04T00:09:29.611Z,4.93
2023-01-04T00:10:32.357Z,5.63
2023-01-04T00:11:35.192Z,5.40
2023-01-04T00:12:37.915Z,4.75
2023-01-04T00:13:40.785Z,5.18
2023-01-04T00:14:43.675Z,5.60
2023-01-04T00:15:46.491Z,5.18
2023-01-04T00:16:49.314Z,5.70
2023-01-04T00:17:52.092Z,5.68
2023-01-04T00:18:55.675Z,5.68
2023-01-04T00:19:58.399Z,5.20
2023-01-04T00:21:12.613Z,6.32
2023-01-04T00:22:15.403Z,5.45
2023-01-04T00:23:18.206Z,5.47
2023-01-04T00:24:21.067Z,6.00
2023-01-04T00:25:23.851Z,6.82
2023-01-04T00:26:29.764Z,6.32
2023-01-04T00:27:33.274Z,6.03
2023-01-04T00:28:36.217Z,6.03
2023-01-04T00:29:38.881Z,6.53
2023-01-04T00:30:41.756Z,6.00
2023-01-04T00:31:45.424Z,6.90
2023-01-04T00:32:48.234Z,6.28
2023-01-04T00:33:54.979Z,6.45
2023-01-04T00:34:57.772Z,6.68
2023-01-04T00:36:05.310Z,6.00
2023-01-04T00:37:08.235Z,6.75
2023-01-04T00:38:11.001Z,5.85
2023-01-04T00:39:15.705Z,6.90
2023-01-04T00:40:18.517Z,6.65
2023-01-04T00:41:49.265Z,7.95
2023-01-04T00:42:44.120Z,6.50
2023-01-04T00:43:46.857Z,6.10
2023-01-04T00:44:49.683Z,6.88
2023-01-04T00:45:52.561Z,6.68
2023-01-04T00:46:55.419Z,6.50
2023-01-04T00:47:58.151Z,6.40
2023-01-04T00:49:01.653Z,6.80
2023-01-04T00:50:04.774Z,6.97
2023-01-04T00:51:07.665Z,7.35
2023-01-04T00:52:10.405Z,6.80
2023-01-04T00:53:13.947Z,6.78
2023-01-04T00:54:17.107Z,7.05
2023-01-04T00:55:20.083Z,8.38
2023-01-04T00:56:22.900Z,6.22
2023-01-04T00:57:25.659Z,7.75
2023-01-04T00:58:28.373Z,6.50
2023-01-04T00:59:31.503Z,6.60
2023-01-04T01:00:35.133Z,6.47
2023-01-04T01:01:38.134Z,7.65
2023-01-04T01:02:41.273Z,7.55
2023-01-04T01:03:44.632Z,8.05
2023-01-04T01:04:47.766Z,7.75
2023-01-04T01:05:50.448Z,7.25
2023-01-04T01:06:53.549Z,7.70
2023-01-04T01:07:56.865Z,8.13
2023-01-04T01:09:00.183Z,7.82
2023-01-04T01:10:03.115Z,8.30
2023-01-04T01:11:08.730Z,7.95
2023-01-04T01:12:11.573Z,7.18
2023-01-04T01:13:14.510Z,6.70
2023-01-04T01:14:20.810Z,7.13
2023-01-04T01:15:23.492Z,7.90
2023-01-04T01:16:52.881Z,7.40
2023-01-04T01:17:49.996Z,7.55
2023-01-04T01:18:53.734Z,8.10
2023-01-04T01:19:56.434Z,7.72
2023-01-04T01:20:59.637Z,7.75
2023-01-04T01:22:02.379Z,7.68
2023-01-04T01:23:05.128Z,8.45
2023-01-04T01:24:16.320Z,7.47
2023-01-04T01:25:19.121Z,7.50
2023-01-04T01:26:24.183Z,7.80
2023-01-04T01:27:27.043Z,7.53
2023-01-04T01:28:30.057Z,8.35
2023-01-04T01:29:32.930Z,8.60
2023-01-04T01:30:40.680Z,7.13
2023-01-04T01:31:43.590Z,8.55
2023-01-04T01:32:46.341Z,8.88
2023-01-04T01:33:50.928Z,7.88
2023-01-04T01:34:53.711Z,7.95
2023-01-04T01:36:01.066Z,9.23
2023-01-04T01:37:03.888Z,8.30
2023-01-04T01:38:06.683Z,7.78
2023-01-04T01:39:09.440Z,8.30
2023-01-04T01:40:13.122Z,7.82
2023-01-04T01:41:27.626Z,7.45
2023-01-04T01:42:30.333Z,8.40
2023-01-04T01:43:55.261Z,7.95
2023-01-04T01:45:01.320Z,7.55
2023-01-04T01:46:04.173Z,7.97
2023-01-04T01:47:12.922Z,7.35
2023-01-04T01:48:20.998Z,7.50
2023-01-04T01:49:29.791Z,7.25
2023-01-04T01:50:45.940Z,7.50
2023-01-04T01:51:48.927Z,8.52
2023-01-04T01:52:52.440Z,7.20
2023-01-04T01:53:59.806Z,8.98
2023-01-04T01:55:05.643Z,7.90
2023-01-04T01:56:09.870Z,7.97
2023-01-04T01:57:16.166Z,6.97
2023-01-04T01:58:23.411Z,8.40
2023-01-04T01:59:26.768Z,7.30
2023-01-04T02:00:30.064Z,8.07
2023-01-04T02:01:33.671Z,8.02
2023-01-04T02:02:37.484Z,7.72
2023-01-04T02:03:42.486Z,7.95
2023-01-04T02:04:47.925Z,7.75
2023-01-04T02:05:53.551Z,7.35
2023-01-04T02:06:57.384Z,8.73
2023-01-04T02:08:00.992Z,7.72
2023-01-04T02:09:04.113Z,8.48
2023-01-04T02:10:07.404Z,7.78
2023-01-04T02:11:10.561Z,7.72
2023-01-04T02:12:14.059Z,7.65
2023-01-04T02:13:21.399Z,7.75
2023-01-04T02:14:27.068Z,7.97
2023-01-04T02:15:33.926Z,8.32
2023-01-04T02:17:13.041Z,7.97
2023-01-04T02:18:22.278Z,8.70
2023-01-04T02:19:55.480Z,8.40
2023-01-04T02:21:13.636Z,7.80
2023-01-04T02:22:16.362Z,8.05
2023-01-04T02:23:31.309Z,8.40
2023-01-04T02:24:43.251Z,7.47
2023-01-04T02:26:11.006Z,8.20
2023-01-04T02:27:38.445Z,7.85
2023-01-04T02:29:02.674Z,8.82
2023-01-04T02:30:11.379Z,7.40
2023-01-04T02:31:45.708Z,8.18
2023-01-04T02:32:59.903Z,7.70
2023-01-04T02:34:12.035Z,8.93
2023-01-04T02:35:31.808Z,8.15
2023-01-04T02:36:50.249Z,8.63
2023-01-04T02:38:11.491Z,8.27
2023-01-04T02:39:24.549Z,9.48
2023-01-04T02:40:42.586Z,8.25
2023-01-04T02:41:50.469Z,8.98
2023-01-04T02:43:27.029Z,8.60
2023-01-04T02:44:58.214Z,8.18
2023-01-04T02:46:12.372Z,8.50
2023-01-04T02:47:42.425Z,8.85
2023-01-04T02:49:03.786Z,7.97
2023-01-04T02:50:31.126Z,8.55
2023-01-04T02:51:36.269Z,8.65
2023-01-04T02:52:39.689Z,9.75
2023-01-04T02:53:42.659Z,8.35
2023-01-04T02:54:48.267Z,9.05
2023-01-04T02:56:17.796Z,8.05
2023-01-04T02:57:29.014Z,8.48
2023-01-04T02:58:50.103Z,8.82
2023-01-04T03:00:00.047Z,8.55
2023-01-04T03:01:21.368Z,9.15
2023-01-04T03:03:21.033Z,8.98
2023-01-04T03:04:57.757Z,9.00
2023-01-04T03:06:15.656Z,8.40
2023-01-04T03:07:33.069Z,8.68
2023-01-04T03:08:40.045Z,8.48
2023-01-04T03:09:47.871Z,10.50
2023-01-04T03:10:59.182Z,9.77
2023-01-04T03:12:27.556Z,10.02
2023-01-04T03:13:42.938Z,10.18
2023-01-04T03:14:52.053Z,9.27
2023-01-04T03:16:00.439Z,9.70
2023-01-04T03:17:07.370Z,10.07
2023-01-04T03:18:20.739Z,9.88
2023-01-04T03:19:47.847Z,9.90
2023-01-04T03:20:53.025Z,9.00
2023-01-04T03:21:55.729Z,10.18
2023-01-04T03:23:32.540Z,9.85
2023-01-04T03:25:10.748Z,9.85
2023-01-04T03:26:58.330Z,9.85
2023-01-04T03:28:19.945Z,10.82
2023-01-04T03:29:49.178Z,10.80
2023-01-04T03:31:19.329Z,10.40
2023-01-04T03:32:51.731Z,8.73
2023-01-04T03:34:17.876Z,10.20
2023-01-04T03:35:28.353Z,9.65
2023-01-04T03:36:49.168Z,9.63
2023-01-04T03:38:13.339Z,10.25
2023-01-04T03:39:40.074Z,10.00
2023-01-04T03:41:05.306Z,9.95
2023-01-04T03:42:50.248Z,10.23
2023-01-04T03:44:43.722Z,9.98
2023-01-04T03:46:13.155Z,11.30
2023-01-04T03:47:56.193Z,11.02
2023-01-04T03:49:05.358Z,9.73
2023-01-04T03:50:30.431Z,11.85
2023-01-04T03:51:37.055Z,11.55
2023-01-04T03:52:41.238Z,10.20
2023-01-04T03:54:15.964Z,10.90
2023-01-04T03:55:19.461Z,11.02
2023-01-04T03:56:23.394Z,10.25
2023-01-04T03:57:26.715Z,11.07
2023-01-04T03:58:29.467Z,10.45
2023-01-04T03:59:34.661Z,10.73
2023-01-04T04:00:37.633Z,11.93
2023-01-04T04:01:43.427Z,11.38
2023-01-04T04:02:47.810Z,11.18
2023-01-04T04:04:09.054Z,11.43
2023-01-04T04:05:36.607Z,10.88
2023-01-04T04:06:58.175Z,10.88
2023-01-04T04:08:19.431Z,11.88
2023-01-04T04:09:22.078Z,10.00
2023-01-04T04:10:25.031Z,11.73
2023-01-04T04:11:31.124Z,12.25
2023-01-04T04:12:33.814Z,10.27
2023-01-04T04:13:36.464Z,10.95
2023-01-04T04:14:39.232Z,11.05
2023-01-04T04:15:42.205Z,11.40
2023-01-04T04:16:45.153Z,11.73
2023-01-04T04:17:47.924Z,11.30
2023-01-04T04:18:50.674Z,11.57
2023-01-04T04:19:53.389Z,10.32
2023-01-04T04:20:59.294Z,12.00
2023-01-04T04:22:01.959Z,11.30
2023-01-04T04:23:04.761Z,11.82
2023-01-04T04:24:07.725Z,11.50
2023-01-04T04:25:10.573Z,11.50
2023-01-04T04:26:13.300Z,11.80
2023-01-04T04:27:16.112Z,12.18
2023-01-04T04:28:18.815Z,11.48
2023-01-04T04:29:22.704Z,11.18
2023-01-04T04:30:25.608Z,10.70
2023-01-04T04:31:28.467Z,11.77
2023-01-04T04:32:31.209Z,10.93
2023-01-04T04:33:33.966Z,11.55
2023-01-04T04:34:37.443Z,13.82
2023-01-04T04:35:40.174Z,11.88
2023-01-04T04:36:42.983Z,13.18
2023-01-04T04:37:45.895Z,13.00
2023-01-04T04:38:48.600Z,13.40
2023-01-04T04:39:51.337Z,12.77
2023-01-04T04:41:12.865Z,12.95
2023-01-04T04:42:15.730Z,12.75
2023-01-04T04:43:18.520Z,13.38
2023-01-04T04:44:21.429Z,11.98
2023-01-04T04:45:24.363Z,12.18
2023-01-04T04:46:27.487Z,12.60
2023-01-04T04:47:30.357Z,12.07
2023-01-04T04:48:33.851Z,14.23
2023-01-04T04:49:36.955Z,12.80
2023-01-04T04:50:39.693Z,13.63
2023-01-04T04:51:42.912Z,12.93
2023-01-04T04:52:48.400Z,12.23
2023-01-04T04:53:53.940Z,12.35
2023-01-04T04:54:56.771Z,12.70
2023-01-04T04:55:59.470Z,12.52
2023-01-04T04:57:02.310Z,12.07
2023-01-04T04:58:05.116Z,12.70
2023-01-04T04:59:07.935Z,12.93
2023-01-04T05:00:11.511Z,13.90
2023-01-04T05:01:14.448Z,12.40
2023-01-04T05:02:17.574Z,12.73
2023-01-04T05:03:20.549Z,12.90
2023-01-04T05:04:23.478Z,13.25
2023-01-04T05:05:26.580Z,13.50
2023-01-04T05:06:29.555Z,12.90
2023-01-04T05:07:32.262Z,13.02
2023-01-04T05:08:35.279Z,13.10
2023-01-04T05:09:38.048Z,12.68
2023-01-04T05:10:40.884Z,13.23
2023-01-04T05:12:01.777Z,13.57
2023-01-04T05:14:09.858Z,11.55
2023-01-04T05:15:12.662Z,13.52
2023-01-04T05:16:15.361Z,13.85
2023-01-04T05:17:18.097Z,15.80
2023-01-04T05:18:21.802Z,15.82
2023-01-04T05:19:24.654Z,16.60
2023-01-04T05:20:27.489Z,14.27
2023-01-04T05:21:30.212Z,12.40
2023-01-04T05:22:32.983Z,14.75
2023-01-04T05:23:35.862Z,13.90
2023-01-04T05:24:38.638Z,15.65
2023-01-04T05:25:41.595Z,12.95
2023-01-04T05:26:44.360Z,14.13
2023-01-04T05:27:47.115Z,15.52
2023-01-04T05:28:53.691Z,15.38
2023-01-04T05:30:15.311Z,14.68
2023-01-04T05:31:18.532Z,14.70
2023-01-04T05:32:21.326Z,14.77
2023-01-04T05:33:27.208Z,14.65
2023-01-04T05:34:30.005Z,13.45
2023-01-04T05:35:33.139Z,13.27
2023-01-04T05:36:35.946Z,15.05
2023-01-04T05:37:38.616Z,14.57
2023-01-04T05:38:41.346Z,13.38
2023-01-04T05:39:44.198Z,12.70
2023-01-04T05:40:47.310Z,13.43
2023-01-04T05:42:08.723Z,13.15
2023-01-04T05:43:13.182Z,13.27
2023-01-04T05:44:15.878Z,12.65
2023-01-04T05:45:22.333Z,12.80
2023-01-04T05:46:25.112Z,13.65
2023-01-04T05:47:28.863Z,13.30
2023-01-04T05:48:31.617Z,12.07
2023-01-04T05:49:34.403Z,13.23
2023-01-04T05:50:37.147Z,13.38
2023-01-04T05:51:40.209Z,14.07
2023-01-04T05:52:42.939Z,12.48
2023-01-04T05:53:45.838Z,12.65
2023-01-04T05:54:48.708Z,13.13
2023-01-04T05:55:51.491Z,13.40
2023-01-04T05:56:54.305Z,12.60
2023-01-04T05:57:57.029Z,14.50
2023-01-04T05:58:59.809Z,11.93
2023-01-04T06:00:03.152Z,12.85
2023-01-04T06:01:15.006Z,12.00
2023-01-04T06:02:25.773Z,12.07
2023-01-04T06:03:28.814Z,11.35
2023-01-04T06:04:31.552Z,12.30
2023-01-04T06:05:34.324Z,11.30
2023-01-04T06:06:37.067Z,12.10
2023-01-04T06:07:41.047Z,12.18
2023-01-04T06:08:43.829Z,11.75
2023-01-04T06:09:46.719Z,14.15
2023-01-04T06:10:55.373Z,12.40
2023-01-04T06:11:58.110Z,10.50
2023-01-04T06:13:00.894Z,13.30
2023-01-04T06:14:03.855Z,12.13
2023-01-04T06:15:07.900Z,11.45
2023-01-04T06:16:10.647Z,12.10
2023-01-04T06:17:13.589Z,12.18
2023-01-04T06:18:16.401Z,13.13
2023-01-04T06:19:19.238Z,12.70
2023-01-04T06:20:22.165Z,12.55
2023-01-04T06:21:25.503Z,11.70
2023-01-04T06:22:29.027Z,12.88
2023-01-04T06:23:31.788Z,12.85
2023-01-04T06:24:34.514Z,13.07
2023-01-04T06:25:37.918Z,12.60
2023-01-04T06:26:40.726Z,13.05
2023-01-04T06:27:43.480Z,14.15
2023-01-04T06:28:46.432Z,13.85
2023-01-04T06:29:49.278Z,13.75
2023-01-04T06:30:52.005Z,16.92
2023-01-04T06:31:55.443Z,14.95
2023-01-04T06:32:58.145Z,14.38
2023-01-04T06:34:01.409Z,14.38
2023-01-04T06:35:04.597Z,13.43
2023-01-04T06:36:07.683Z,13.80
2023-01-04T06:37:22.918Z,14.98
2023-01-04T06:38:25.765Z,13.95
2023-01-04T06:39:28.734Z,14.15
2023-01-04T06:40:31.491Z,13.82
2023-01-04T06:41:34.688Z,14.63
2023-01-04T06:42:46.372Z,13.98
2023-01-04T06:43:49.327Z,12.80
2023-01-04T06:44:52.000Z,13.02
2023-01-04T06:45:54.757Z,13.27
2023-01-04T06:46:58.074Z,14.85
2023-01-04T06:48:05.750Z,16.08
2023-01-04T06:50:14.477Z,13.73
2023-01-04T06:51:17.181Z,15.68
2023-01-04T06:52:20.161Z,14.95
2023-01-04T06:53:23.026Z,16.88
2023-01-04T06:54:25.871Z,16.65
2023-01-04T06:55:29.975Z,16.67
2023-01-04T06:56:33.684Z,14.10
2023-01-04T06:57:36.515Z,15.82
2023-01-04T06:58:39.334Z,17.88
2023-01-04T06:59:42.140Z,20.05
2023-01-04T07:00:46.431Z,18.60
2023-01-04T07:01:49.337Z,17.67
2023-01-04T07:03:13.632Z,17.88
2023-01-04T07:04:14.899Z,16.65
2023-01-04T07:05:18.114Z,18.85
2023-01-04T07:06:20.884Z,16.73
2023-01-04T07:07:23.725Z,16.15
2023-01-04T07:08:26.424Z,15.95
2023-01-04T07:09:29.169Z,16.83
2023-01-04T07:10:32.049Z,16.88
2023-01-04T07:11:34.786Z,15.23
2023-01-04T07:12:38.818Z,14.82
2023-01-04T07:13:41.602Z,15.82
2023-01-04T07:14:44.614Z,15.73
2023-01-04T07:15:47.515Z,17.15
2023-01-04T07:16:50.593Z,22.27
2023-01-04T07:17:53.728Z,18.73
2023-01-04T07:18:56.505Z,17.65
2023-01-04T07:19:59.652Z,16.70
2023-01-04T07:21:02.787Z,16.92
2023-01-04T07:22:05.533Z,16.05
2023-01-04T07:23:08.617Z,16.27
2023-01-04T07:24:11.532Z,16.10
2023-01-04T07:25:14.275Z,15.63
2023-01-04T07:26:17.147Z,14.68
2023-01-04T07:27:19.939Z,14.18
2023-01-04T07:28:41.097Z,14.48
2023-01-04T07:29:44.422Z,14.10
2023-01-04T07:30:47.196Z,15.02
2023-01-04T07:31:52.122Z,14.88
2023-01-04T07:32:55.916Z,14.07
2023-01-04T07:33:58.838Z,15.43
2023-01-04T07:35:01.566Z,14.63
2023-01-04T07:36:06.076Z,14.80
2023-01-04T07:37:13.135Z,15.70
2023-01-04T07:38:15.973Z,15.73
2023-01-04T07:39:19.521Z,17.23
2023-01-04T07:40:22.316Z,15.65
2023-01-04T07:41:25.106Z,16.13
2023-01-04T07:42:27.870Z,15.98
2023-01-04T07:43:30.871Z,15.85
2023-01-04T07:44:34.049Z,15.00
2023-01-04T07:45:39.668Z,15.07
2023-01-04T07:46:43.260Z,15.25
2023-01-04T07:47:46.574Z,14.15
2023-01-04T07:48:49.418Z,14.93
2023-01-04T07:49:52.168Z,16.50
2023-01-04T07:50:55.101Z,14.75
2023-01-04T07:51:57.967Z,15.43
2023-01-04T07:53:02.068Z,15.20
2023-01-04T07:54:05.043Z,15.25
2023-01-04T07:55:08.367Z,16.65
2023-01-04T07:56:15.246Z,15.95
2023-01-04T07:57:21.375Z,15.43
2023-01-04T07:58:24.560Z,15.10
2023-01-04T07:59:27.391Z,15.48
2023-01-04T08:00:30.157Z,15.55
2023-01-04T08:01:35.713Z,15.48
2023-01-04T08:02:38.923Z,17.77
2023-01-04T08:03:42.321Z,17.58
2023-01-04T08:04:45.214Z,17.42
2023-01-04T08:05:48.177Z,16.10
2023-01-04T08:06:51.016Z,16.98
2023-01-04T08:07:53.936Z,16.90
2023-01-04T08:08:56.735Z,16.00
2023-01-04T08:09:59.689Z,18.35
2023-01-04T08:11:03.883Z,17.05
2023-01-04T08:12:06.676Z,16.92
2023-01-04T08:13:09.636Z,18.13
2023-01-04T08:14:12.723Z,17.77
2023-01-04T08:15:15.706Z,17.98
2023-01-04T08:16:22.669Z,17.20
2023-01-04T08:17:25.459Z,17.13
2023-01-04T08:18:28.422Z,18.83
2023-01-04T08:19:31.356Z,18.90
2023-01-04T08:20:34.074Z,18.65
2023-01-04T08:21:36.979Z,18.80
2023-01-04T08:22:39.749Z,20.58
2023-01-04T08:23:42.511Z,17.83
2023-01-04T08:24:45.217Z,18.02
2023-01-04T08:25:47.937Z,17.85
2023-01-04T08:26:50.732Z,16.80
2023-01-04T08:27:53.454Z,17.45
2023-01-04T08:28:56.723Z,18.02
2023-01-04T08:29:59.629Z,16.92
2023-01-04T08:31:29.532Z,18.20
2023-01-04T08:32:32.347Z,18.75
2023-01-04T08:33:37.291Z,16.55
2023-01-04T08:34:40.315Z,16.23
2023-01-04T08:35:43.166Z,16.98
2023-01-04T08:36:50.907Z,18.25
2023-01-04T08:37:53.722Z,15.38
2023-01-04T08:39:06.117Z,16.55
2023-01-04T08:40:09.647Z,17.73
2023-01-04T08:41:31.283Z,17.80
2023-01-04T08:42:35.439Z,17.90
2023-01-04T08:43:38.609Z,17.90
2023-01-04T08:44:41.370Z,17.27
2023-01-04T08:45:44.224Z,17.27
2023-01-04T08:46:47.890Z,16.98
2023-01-04T08:47:50.640Z,16.80
2023-01-04T08:48:53.419Z,16.25
2023-01-04T08:49:57.036Z,15.35
2023-01-04T08:51:05.730Z,16.00
2023-01-04T08:52:09.323Z,16.10
2023-01-04T08:53:12.994Z,15.27
2023-01-04T08:54:15.966Z,15.05
2023-01-04T08:55:23.135Z,14.40
2023-01-04T08:56:26.276Z,14.93
2023-01-04T08:57:29.116Z,15.80
2023-01-04T08:58:32.739Z,15.50
2023-01-04T08:59:35.577Z,15.43
2023-01-04T09:00:38.239Z,15.00
2023-01-04T09:01:41.656Z,15.02
2023-01-04T09:02:44.672Z,14.35
2023-01-04T09:03:47.537Z,14.88
2023-01-04T09:04:51.290Z,14.63
2023-01-04T09:05:54.259Z,14.10
2023-01-04T09:06:57.447Z,14.40
2023-01-04T09:08:00.995Z,15.05
2023-01-04T09:09:03.851Z,15.63
2023-01-04T09:10:07.125Z,14.63
2023-01-04T09:11:14.779Z,15.05
2023-01-04T09:12:17.738Z,14.93
2023-01-04T09:13:21.177Z,15.55
2023-01-04T09:14:24.052Z,14.98
2023-01-04T09:15:26.871Z,16.08
2023-01-04T09:16:29.692Z,14.90
2023-01-04T09:17:32.429Z,15.43
2023-01-04T09:18:35.514Z,15.00
2023-01-04T09:19:38.188Z,15.77
2023-01-04T09:20:41.334Z,15.38
2023-01-04T09:21:44.048Z,16.15
2023-01-04T09:22:46.907Z,15.02
2023-01-04T09:23:50.165Z,13.82
2023-01-04T09:24:54.061Z,15.18
2023-01-04T09:25:56.826Z,15.77
2023-01-04T09:26:59.823Z,16.30
2023-01-04T09:28:02.536Z,15.15
2023-01-04T09:29:06.792Z,15.88
2023-01-04T09:30:10.370Z,15.95
2023-01-04T09:31:18.681Z,13.93
2023-01-04T09:32:21.514Z,13.35
2023-01-04T09:33:41.306Z,16.25
2023-01-04T09:34:47.847Z,14.27
2023-01-04T09:35:50.630Z,14.88
2023-01-04T09:36:53.489Z,16.65
2023-01-04T09:37:56.510Z,17.23
2023-01-04T09:38:59.250Z,15.77
2023-01-04T09:40:02.130Z,16.08
2023-01-04T09:41:04.848Z,14.70
2023-01-04T09:42:38.197Z,15.70
2023-01-04T09:44:02.415Z,15.18
2023-01-04T09:45:26.924Z,14.85
2023-01-04T09:46:41.978Z,15.27
2023-01-04T09:48:01.448Z,14.48
2023-01-04T09:49:29.533Z,14.70
2023-01-04T09:50:35.667Z,13.43
2023-01-04T09:51:39.666Z,14.73
2023-01-04T09:53:23.747Z,14.82
2023-01-04T09:54:33.056Z,15.23
2023-01-04T09:55:41.247Z,14.35
2023-01-04T09:56:58.427Z,14.25
2023-01-04T09:58:14.187Z,14.93
2023-01-04T09:59:18.201Z,14.80
2023-01-04T10:00:40.210Z,14.10
2023-01-04T10:01:50.405Z,14.63
2023-01-04T10:03:03.540Z,14.40
2023-01-04T10:04:25.609Z,14.10
2023-01-04T10:05:32.605Z,13.82
2023-01-04T10:06:35.683Z,15.05
2023-01-04T10:07:38.475Z,14.82
2023-01-04T10:08:44.197Z,14.85
2023-01-04T10:09:46.947Z,14.43
2023-01-04T10:11:13.625Z,14.73
2023-01-04T10:12:43.811Z,14.32
2023-01-04T10:14:14.016Z,12.98
2023-01-04T10:15:31.954Z,12.98
2023-01-04T10:17:12.124Z,13.60
2023-01-04T10:21:18.717Z,15.23
2023-01-04T10:21:44.207Z,14.57
2023-01-04T10:23:11.873Z,15.13
2023-01-04T10:24:26.113Z,13.80
2023-01-04T10:25:54.934Z,14.63
2023-01-04T10:27:09.256Z,14.25
2023-01-04T10:28:43.481Z,15.02
2023-01-04T10:30:08.067Z,15.20
2023-01-04T10:31:39.929Z,14.02
2023-01-04T10:32:43.675Z,12.90
2023-01-04T10:33:51.297Z,13.75
2023-01-04T10:34:54.203Z,13.30
2023-01-04T10:35:57.668Z,12.98
2023-01-04T10:37:06.935Z,14.43
2023-01-04T10:38:17.856Z,13.50
2023-01-04T10:39:28.526Z,13.15
2023-01-04T10:40:39.493Z,13.25
2023-01-04T10:41:58.291Z,12.82
2023-01-04T10:43:25.394Z,12.38
2023-01-04T10:44:56.444Z,12.35
2023-01-04T10:47:22.441Z,11.70
2023-01-04T10:48:33.730Z,11.70
2023-01-04T10:50:09.410Z,11.75
2023-01-04T10:51:14.988Z,11.65
2023-01-04T10:52:52.302Z,12.75
2023-01-04T10:54:12.071Z,11.48
2023-01-04T10:55:29.145Z,12.27
2023-01-04T10:56:43.682Z,11.00
2023-01-04T10:57:59.548Z,10.48
2023-01-04T10:59:12.220Z,11.77
2023-01-04T11:00:19.950Z,11.32
2023-01-04T11:01:27.218Z,11.10
2023-01-04T11:02:35.804Z,10.88
2023-01-04T11:03:45.928Z,10.13
2023-01-04T11:05:00.477Z,10.70
2023-01-04T11:06:16.333Z,10.40
2023-01-04T11:07:26.197Z,10.93
2023-01-04T11:08:38.276Z,10.45
2023-01-04T11:09:46.279Z,9.60
2023-01-04T11:11:00.511Z,10.82
2023-01-04T11:12:03.593Z,10.65
2023-01-04T11:13:06.759Z,10.82
2023-01-04T11:14:10.372Z,10.27
2023-01-04T11:15:13.277Z,12.05
2023-01-04T11:16:16.195Z,11.32
2023-01-04T11:17:20.462Z,11.73
2023-01-04T11:18:23.281Z,10.75
2023-01-04T11:19:25.964Z,11.30
2023-01-04T11:20:37.690Z,11.68
2023-01-04T11:21:57.200Z,10.05
2023-01-04T11:23:07.672Z,10.10
2023-01-04T11:25:38.794Z,9.65
2023-01-04T11:26:43.865Z,10.48
2023-01-04T11:27:49.959Z,10.85
2023-01-04T11:28:56.385Z,10.18
2023-01-04T11:30:12.260Z,10.43
2023-01-04T11:31:30.821Z,9.65
2023-01-04T11:32:33.948Z,10.65
2023-01-04T11:33:53.046Z,11.07
2023-01-04T11:34:57.713Z,10.82
2023-01-04T11:36:01.608Z,10.55
2023-01-04T11:37:04.413Z,10.02
2023-01-04T11:38:11.254Z,10.38
2023-01-04T11:39:21.550Z,10.20
2023-01-04T11:40:25.707Z,9.90
2023-01-04T11:41:28.813Z,10.80
2023-01-04T11:42:31.764Z,10.43
2023-01-04T11:43:39.562Z,10.73
2023-01-04T11:44:42.314Z,10.05
2023-01-04T11:46:03.321Z,11.13
2023-01-04T11:47:19.433Z,9.95
2023-01-04T11:48:42.779Z,9.98
2023-01-04T11:49:46.303Z,9.80
2023-01-04T11:50:51.691Z,8.00
2023-01-04T11:51:54.444Z,9.32
2023-01-04T11:52:57.213Z,10.07
2023-01-04T11:54:20.239Z,10.40
2023-01-04T11:55:29.980Z,10.05
2023-01-04T11:56:35.579Z,9.82
2023-01-04T11:57:38.285Z,8.48
2023-01-04T11:58:42.495Z,9.10
2023-01-04T11:59:45.585Z,9.27
2023-01-04T12:00:55.842Z,9.77
2023-01-04T12:02:58.658Z,10.18
2023-01-04T12:03:45.314Z,7.95
2023-01-04T12:04:48.714Z,8.70
2023-01-04T12:05:51.832Z,8.43
2023-01-04T12:07:00.616Z,8.07
2023-01-04T12:08:03.738Z,9.35
2023-01-04T12:09:08.817Z,9.23
2023-01-04T12:10:22.013Z,8.75
2023-01-04T12:11:36.233Z,8.20
2023-01-04T12:12:39.423Z,8.43
2023-01-04T12:13:42.160Z,8.80
2023-01-04T12:14:49.066Z,9.48
2023-01-04T12:16:12.542Z,8.50
2023-01-04T12:17:29.283Z,8.50
2023-01-04T12:18:40.452Z,8.02
2023-01-04T12:19:44.753Z,7.80
2023-01-04T12:20:47.526Z,9.13
2023-01-04T12:21:53.348Z,8.15
2023-01-04T12:22:56.080Z,7.55
2023-01-04T12:23:58.832Z,8.52
2023-01-04T12:25:02.621Z,8.48
2023-01-04T12:26:05.625Z,7.72
2023-01-04T12:27:14.256Z,7.55
2023-01-04T12:28:35.558Z,7.80
2023-01-04T12:29:44.397Z,7.45
2023-01-04T12:30:47.286Z,7.88
2023-01-04T12:31:54.594Z,8.65
2023-01-04T12:32:57.320Z,8.02
2023-01-04T12:34:23.340Z,7.55
2023-01-04T12:35:57.816Z,6.90
2023-01-04T12:37:05.670Z,6.53
2023-01-04T12:38:10.706Z,7.40
2023-01-04T12:39:13.956Z,6.28
2023-01-04T12:40:44.649Z,7.45
2023-01-04T12:42:00.808Z,7.68
2023-01-04T12:43:16.059Z,6.63
2023-01-04T12:44:37.073Z,7.30
2023-01-04T12:45:40.232Z,6.50
2023-01-04T12:47:01.710Z,6.88
2023-01-04T12:48:45.947Z,6.57
2023-01-04T12:50:13.548Z,7.38
2023-01-04T12:51:31.462Z,7.97
2023-01-04T12:53:19.409Z,7.20
2023-01-04T12:54:32.300Z,6.60
2023-01-04T12:55:41.995Z,6.85
2023-01-04T12:57:17.203Z,7.10
2023-01-04T12:59:23.789Z,7.03
2023-01-04T13:00:09.576Z,5.85
2023-01-04T13:01:23.870Z,6.55
2023-01-04T13:02:30.695Z,6.15
2023-01-04T13:03:48.344Z,6.13
2023-01-04T13:05:16.983Z,6.50
2023-01-04T13:06:21.146Z,6.15
2023-01-04T13:07:33.429Z,6.93
2023-01-04T13:08:42.521Z,6.15
2023-01-04T13:09:55.221Z,6.07
2023-01-04T13:10:58.009Z,6.45
2023-01-04T13:12:26.271Z,6.35
2023-01-04T13:14:02.083Z,7.47
2023-01-04T13:15:14.475Z,6.60
2023-01-04T13:16:28.599Z,6.47
2023-01-04T13:17:32.163Z,6.85
2023-01-04T13:18:51.544Z,7.43
2023-01-04T13:19:54.721Z,6.35
2023-01-04T13:20:57.746Z,6.32
2023-01-04T13:22:00.585Z,6.45
2023-01-04T13:23:03.330Z,6.68
2023-01-04T13:24:30.488Z,7.30
2023-01-04T13:25:35.886Z,6.53
2023-01-04T13:26:45.930Z,6.80
2023-01-04T13:28:00.045Z,7.13
2023-01-04T13:29:30.361Z,6.40
2023-01-04T13:30:34.722Z,7.32
2023-01-04T13:31:52.643Z,7.40
2023-01-04T13:33:24.798Z,7.15
2023-01-04T13:34:24.369Z,6.93
2023-01-04T13:35:27.131Z,6.72
2023-01-04T13:36:29.961Z,8.43
2023-01-04T13:37:43.869Z,8.07
2023-01-04T13:38:47.216Z,8.52
2023-01-04T13:39:53.177Z,7.13
2023-01-04T13:40:56.006Z,7.50
2023-01-04T13:41:59.683Z,8.52
2023-01-04T13:43:21.180Z,8.38
2023-01-04T13:46:15.883Z,7.32
2023-01-04T13:47:18.969Z,8.07
2023-01-04T13:48:23.317Z,8.20
2023-01-04T13:49:26.133Z,8.27
2023-01-04T13:50:34.497Z,7.97
2023-01-04T13:51:38.380Z,7.70
2023-01-04T13:52:56.361Z,8.85
2023-01-04T13:54:04.855Z,7.95
2023-01-04T13:55:27.485Z,7.95
2023-01-04T13:56:32.931Z,8.57
2023-01-04T13:57:35.805Z,8.43
2023-01-04T13:58:38.692Z,8.85
2023-01-04T13:59:41.396Z,8.57
2023-01-04T14:00:46.697Z,9.25
2023-01-04T14:01:49.762Z,9.50
2023-01-04T14:03:10.800Z,8.60
2023-01-04T14:05:27.708Z,8.40
2023-01-04T14:06:44.735Z,9.07
2023-01-04T14:07:47.575Z,8.88
2023-01-04T14:09:13.817Z,8.35
2023-01-04T14:10:18.348Z,8.73
2023-01-04T14:11:48.467Z,8.45
2023-01-04T14:12:51.167Z,8.88
2023-01-04T14:13:53.905Z,9.38
2023-01-04T14:14:58.780Z,8.85
2023-01-04T14:16:14.925Z,8.93
2023-01-04T14:17:43.065Z,8.90
2023-01-04T14:18:49.140Z,8.20
2023-01-04T14:20:00.524Z,7.38
2023-01-04T14:21:03.356Z,8.93
2023-01-04T14:22:21.640Z,8.90
2023-01-04T14:23:35.744Z,8.73
2023-01-04T14:26:01.768Z,8.05
2023-01-04T14:27:37.677Z,8.65
2023-01-04T14:28:49.132Z,9.75
2023-01-04T14:29:52.590Z,7.20
2023-01-04T14:31:01.466Z,8.23
2023-01-04T14:32:08.465Z,8.50
2023-01-04T14:33:27.872Z,9.07
2023-01-04T14:34:30.741Z,8.93
2023-01-04T14:35:34.615Z,10.50
2023-01-04T14:36:39.568Z,10.38
2023-01-04T14:37:42.391Z,9.30
2023-01-04T14:39:12.793Z,9.35
2023-01-04T14:40:24.352Z,10.07
2023-01-04T14:41:34.040Z,9.63
2023-01-04T14:42:36.815Z,8.45
2023-01-04T14:43:53.679Z,10.55
2023-01-04T14:44:56.471Z,9.48
2023-01-04T14:45:59.516Z,10.07
2023-01-04T14:47:06.259Z,11.43
2023-01-04T14:48:10.878Z,10.23
2023-01-04T14:49:14.450Z,11.00
2023-01-04T14:50:20.693Z,10.55
2023-01-04T14:51:40.787Z,10.20
2023-01-04T14:52:51.495Z,9.25
2023-01-04T14:54:59.297Z,9.63
2023-01-04T14:56:02.024Z,10.15
2023-01-04T14:57:04.843Z,10.35
2023-01-04T14:58:07.598Z,10.32
2023-01-04T14:59:11.023Z,9.80
2023-01-04T15:00:19.738Z,9.55
2023-01-04T15:01:23.029Z,9.68
2023-01-04T15:02:27.172Z,10.05
2023-01-04T15:03:30.242Z,9.98
2023-01-04T15:04:33.062Z,9.75
2023-01-04T15:05:38.032Z,10.10